Cominto, Arkansas
Current Conditions -  °F | °C
As of 9:53 PM on Saturday 25 Oct 2014 (Local Time) from KLLQ Reporting Station
Clear Clear  
Wind Chill: 22°   Ceiling: Unl
Heat Index: 22°   Visibility: 10mi
Dew Point: 18°   Wind: 6mph
Humidity: 78%   Direction: 240°WSW
Pressure: 30.06"   Gusts: NA
Location:  33.5819°N, 91.7907°W
Report Text: KLLQ 260253Z AUTO 24005KT 10SM CLR 22/18 A3006 RMK AO2 SLP175 60000 T02170178 51002
Loading
Personal Weather Stations






























Interactive Weather Map
Tropical Storm Tracking
New forecast layout! Learn more

10-Day Weather Forecast

Advertisements
Track Severe Weather on mobile